createdAt,value
2019-02-25T00:00:22.788Z,4.67
2019-02-25T00:01:22.756Z,4.70
2019-02-25T00:02:22.731Z,4.67
2019-02-25T00:03:22.709Z,4.72
2019-02-25T00:04:22.682Z,4.67
2019-02-25T00:05:22.656Z,4.77
2019-02-25T00:06:22.642Z,4.65
2019-02-25T00:07:22.611Z,4.70
2019-02-25T00:08:22.586Z,4.59
2019-02-25T00:09:22.569Z,4.70
2019-02-25T00:10:22.543Z,4.66
2019-02-25T00:11:22.512Z,4.63
2019-02-25T00:12:22.489Z,4.60
2019-02-25T00:13:22.464Z,4.63
2019-02-25T00:14:22.439Z,4.59
2019-02-25T00:15:22.426Z,4.59
2019-02-25T00:16:22.396Z,4.45
2019-02-25T00:17:22.366Z,4.45
2019-02-25T00:18:22.347Z,4.47
2019-02-25T00:19:22.317Z,4.58
2019-02-25T00:20:22.302Z,4.47
2019-02-25T00:21:22.273Z,4.48
2019-02-25T00:22:22.244Z,4.48
2019-02-25T00:23:22.222Z,4.47
2019-02-25T00:24:22.197Z,4.45
2019-02-25T00:25:22.172Z,4.51
2019-02-25T00:26:22.151Z,4.58
2019-02-25T00:27:22.123Z,4.60
2019-02-25T00:28:22.097Z,4.59
2019-02-25T00:29:22.074Z,4.47
2019-02-25T00:30:22.054Z,4.45
2019-02-25T00:31:22.025Z,4.34
2019-02-25T00:32:22.004Z,4.30
2019-02-25T00:33:21.979Z,4.27
2019-02-25T00:34:21.953Z,4.26
2019-02-25T00:35:21.927Z,4.32
2019-02-25T00:36:21.911Z,4.36
2019-02-25T00:37:21.879Z,4.30
2019-02-25T00:38:21.854Z,4.34
2019-02-25T00:39:21.830Z,4.37
2019-02-25T00:40:21.808Z,4.32
2019-02-25T00:41:21.783Z,4.22
2019-02-25T00:42:21.769Z,4.04
2019-02-25T00:43:21.731Z,3.88
2019-02-25T00:44:21.707Z,3.61
2019-02-25T00:45:21.684Z,3.52
2019-02-25T00:46:21.666Z,3.45
2019-02-25T00:47:21.636Z,3.42
2019-02-25T00:48:21.615Z,3.45
2019-02-25T00:49:21.591Z,3.50
2019-02-25T00:50:21.563Z,3.50
2019-02-25T00:51:21.537Z,3.43
2019-02-25T00:52:21.511Z,3.48
2019-02-25T00:53:21.487Z,3.48
2019-02-25T00:54:21.462Z,3.51
2019-02-25T00:55:21.440Z,3.54
2019-02-25T00:56:21.420Z,3.66
2019-02-25T00:57:21.389Z,3.72
2019-02-25T00:58:21.374Z,3.76
2019-02-25T00:59:21.344Z,3.87
2019-02-25T01:00:21.321Z,3.91
2019-02-25T01:01:21.298Z,3.83
2019-02-25T01:02:21.274Z,3.79
2019-02-25T01:03:21.245Z,3.83
2019-02-25T01:04:21.227Z,3.75
2019-02-25T01:05:21.200Z,3.87
2019-02-25T01:06:21.172Z,3.88
2019-02-25T01:07:21.149Z,3.93
2019-02-25T01:08:21.120Z,3.94
2019-02-25T01:09:21.096Z,3.87
2019-02-25T01:10:21.077Z,3.94
2019-02-25T01:11:21.055Z,3.97
2019-02-25T01:12:21.033Z,4.04
2019-02-25T01:13:20.997Z,4.00
2019-02-25T01:14:20.973Z,4.12
2019-02-25T01:15:20.951Z,4.08
2019-02-25T01:16:20.926Z,4.04
2019-02-25T01:17:20.901Z,4.02
2019-02-25T01:18:20.883Z,3.91
2019-02-25T01:19:20.853Z,3.76
2019-02-25T01:20:20.827Z,3.79
2019-02-25T01:21:20.800Z,3.69
2019-02-25T01:22:20.780Z,3.66
2019-02-25T01:23:20.754Z,3.61
2019-02-25T01:24:20.729Z,3.48
2019-02-25T01:25:20.705Z,3.36
2019-02-25T01:26:20.685Z,3.24
2019-02-25T01:27:20.656Z,3.21
2019-02-25T01:28:20.632Z,3.18
2019-02-25T01:29:20.604Z,3.21
2019-02-25T01:30:20.580Z,3.14
2019-02-25T01:31:20.556Z,3.08
2019-02-25T01:32:20.531Z,3.05
2019-02-25T01:33:20.505Z,3.06
2019-02-25T01:34:20.481Z,3.08
2019-02-25T01:35:20.456Z,3.03
2019-02-25T01:36:20.433Z,3.05
2019-02-25T01:37:20.412Z,3.13
2019-02-25T01:38:20.381Z,3.11
2019-02-25T01:39:20.361Z,3.23
2019-02-25T01:40:20.332Z,3.21
2019-02-25T01:41:20.308Z,3.33
2019-02-25T01:42:20.283Z,3.26
2019-02-25T01:43:20.259Z,3.24
2019-02-25T01:44:20.235Z,3.10
2019-02-25T01:45:20.213Z,2.87
2019-02-25T01:46:20.188Z,2.97
2019-02-25T01:47:20.161Z,2.79
2019-02-25T01:48:20.135Z,2.87
2019-02-25T01:49:20.111Z,2.93
2019-02-25T01:50:20.084Z,2.96
2019-02-25T01:51:22.089Z,2.97
2019-02-25T01:52:20.039Z,3.06
2019-02-25T01:53:20.014Z,3.13
2019-02-25T01:54:19.986Z,3.18
2019-02-25T01:55:19.963Z,3.21
2019-02-25T01:56:19.937Z,3.18
2019-02-25T01:57:19.911Z,3.13
2019-02-25T01:58:19.886Z,3.06
2019-02-25T01:59:20.015Z,3.00
2019-02-25T02:00:19.837Z,2.96
2019-02-25T02:01:19.817Z,2.96
2019-02-25T02:02:19.788Z,2.92
2019-02-25T02:03:19.766Z,2.85
2019-02-25T02:04:19.739Z,2.71
2019-02-25T02:05:19.711Z,2.81
2019-02-25T02:06:19.688Z,2.71
2019-02-25T02:07:19.666Z,2.75
2019-02-25T02:08:19.643Z,2.85
2019-02-25T02:09:19.614Z,2.96
2019-02-25T02:10:19.590Z,2.96
2019-02-25T02:11:19.564Z,3.03
2019-02-25T02:12:19.543Z,3.10
2019-02-25T02:13:19.515Z,3.21
2019-02-25T02:14:19.493Z,3.21
2019-02-25T02:15:19.465Z,3.26
2019-02-25T02:16:19.441Z,3.26
2019-02-25T02:17:19.416Z,3.29
2019-02-25T02:18:19.397Z,3.31
2019-02-25T02:19:19.365Z,3.35
2019-02-25T02:20:19.345Z,3.43
2019-02-25T02:21:19.317Z,3.36
2019-02-25T02:22:19.292Z,3.36
2019-02-25T02:23:19.266Z,3.51
2019-02-25T02:24:19.240Z,3.40
2019-02-25T02:25:19.221Z,3.42
2019-02-25T02:26:21.070Z,3.40
2019-02-25T02:27:19.173Z,3.40
2019-02-25T02:28:19.142Z,3.51
2019-02-25T02:29:19.121Z,3.47
2019-02-25T02:30:19.099Z,3.50
2019-02-25T02:31:19.072Z,3.45
2019-02-25T02:32:19.058Z,3.45
2019-02-25T02:33:19.015Z,3.48
2019-02-25T02:34:19.004Z,3.33
2019-02-25T02:35:18.976Z,3.13
2019-02-25T02:36:18.943Z,2.97
2019-02-25T02:37:18.917Z,2.84
2019-02-25T02:38:18.893Z,2.67
2019-02-25T02:39:18.868Z,2.52
2019-02-25T02:40:18.843Z,2.48
2019-02-25T02:41:18.826Z,2.60
2019-02-25T02:42:18.799Z,2.64
2019-02-25T02:43:18.769Z,2.66
2019-02-25T02:44:18.744Z,2.61
2019-02-25T02:45:18.722Z,2.59
2019-02-25T02:46:18.693Z,2.48
2019-02-25T02:47:18.672Z,2.36
2019-02-25T02:48:18.646Z,2.31
2019-02-25T02:49:18.617Z,2.23
2019-02-25T02:50:18.594Z,2.16
2019-02-25T02:51:18.569Z,2.25
2019-02-25T02:52:18.544Z,2.25
2019-02-25T02:53:18.663Z,2.25
2019-02-25T02:54:18.494Z,2.31
2019-02-25T02:55:18.467Z,2.30
2019-02-25T02:56:18.442Z,2.48
2019-02-25T02:57:18.417Z,2.54
2019-02-25T02:58:18.392Z,2.63
2019-02-25T02:59:18.366Z,2.69
2019-02-25T03:00:18.344Z,2.72
2019-02-25T03:01:18.333Z,2.74
2019-02-25T03:02:18.296Z,2.66
2019-02-25T03:03:18.275Z,2.77
2019-02-25T03:04:18.247Z,2.84
2019-02-25T03:05:18.218Z,2.81
2019-02-25T03:06:18.197Z,2.87
2019-02-25T03:07:18.167Z,2.81
2019-02-25T03:08:18.143Z,2.95
2019-02-25T03:09:18.117Z,2.97
2019-02-25T03:10:18.113Z,2.93
2019-02-25T03:11:18.069Z,2.85
2019-02-25T03:12:18.050Z,2.79
2019-02-25T03:13:18.014Z,2.79
2019-02-25T03:14:17.991Z,2.74
2019-02-25T03:15:17.967Z,2.77
2019-02-25T03:16:17.947Z,2.79
2019-02-25T03:17:17.914Z,2.82
2019-02-25T03:18:17.894Z,2.82
2019-02-25T03:19:17.869Z,2.87
2019-02-25T03:20:17.841Z,2.82
2019-02-25T03:21:17.830Z,2.82
2019-02-25T03:22:17.790Z,2.92
2019-02-25T03:23:17.763Z,2.89
2019-02-25T03:24:17.750Z,2.89
2019-02-25T03:25:17.738Z,2.87
2019-02-25T03:26:17.691Z,2.84
2019-02-25T03:27:17.667Z,2.89
2019-02-25T03:28:17.643Z,2.84
2019-02-25T03:29:17.623Z,2.84
2019-02-25T03:30:17.633Z,2.82
2019-02-25T03:31:17.569Z,2.85
2019-02-25T03:32:17.546Z,2.89
2019-02-25T03:33:17.514Z,2.96
2019-02-25T03:34:17.514Z,2.95
2019-02-25T03:35:17.467Z,2.96
2019-02-25T03:36:17.447Z,2.96
2019-02-25T03:37:17.420Z,2.96
2019-02-25T03:38:17.390Z,2.82
2019-02-25T03:39:17.363Z,2.81
2019-02-25T03:40:17.341Z,2.71
2019-02-25T03:41:17.315Z,2.71
2019-02-25T03:42:17.288Z,2.66
2019-02-25T03:43:17.270Z,2.69
2019-02-25T03:44:17.243Z,2.69
2019-02-25T03:45:17.215Z,2.78
2019-02-25T03:46:17.194Z,2.78
2019-02-25T03:47:17.163Z,2.78
2019-02-25T03:48:17.139Z,2.72
2019-02-25T03:49:17.114Z,2.64
2019-02-25T03:50:17.106Z,2.54
2019-02-25T03:51:17.063Z,2.43
2019-02-25T03:52:17.036Z,2.42
2019-02-25T03:53:17.012Z,2.30
2019-02-25T03:54:16.994Z,2.43
2019-02-25T03:55:16.979Z,2.36
2019-02-25T03:56:16.936Z,2.39
2019-02-25T03:57:16.916Z,2.52
2019-02-25T03:58:16.883Z,2.53
2019-02-25T03:59:16.862Z,2.53
2019-02-25T04:00:16.835Z,2.46
2019-02-25T04:01:16.810Z,2.45
2019-02-25T04:02:16.782Z,2.42
2019-02-25T04:03:16.763Z,2.25
2019-02-25T04:04:16.736Z,2.25
2019-02-25T04:05:16.708Z,2.16
2019-02-25T04:06:16.687Z,2.07
2019-02-25T04:07:16.658Z,2.00
2019-02-25T04:08:16.634Z,2.14
2019-02-25T04:09:16.607Z,2.17
2019-02-25T04:10:16.606Z,2.18
2019-02-25T04:11:16.568Z,2.23
2019-02-25T04:12:16.533Z,2.25
2019-02-25T04:13:16.508Z,2.28
2019-02-25T04:14:16.480Z,2.30
2019-02-25T04:15:16.467Z,2.42
2019-02-25T04:16:16.435Z,2.36
2019-02-25T04:17:16.407Z,2.45
2019-02-25T04:18:16.382Z,2.45
2019-02-25T04:19:16.355Z,2.54
2019-02-25T04:20:16.337Z,2.53
2019-02-25T04:21:16.312Z,2.43
2019-02-25T04:22:16.325Z,2.49
2019-02-25T04:23:16.261Z,2.54
2019-02-25T04:24:16.228Z,2.49
2019-02-25T04:25:16.206Z,2.35
2019-02-25T04:26:16.178Z,2.27
2019-02-25T04:27:16.156Z,2.35
2019-02-25T04:28:16.131Z,2.21
2019-02-25T04:29:16.101Z,2.25
2019-02-25T04:30:16.074Z,2.30
2019-02-25T04:31:16.054Z,2.23
2019-02-25T04:32:16.025Z,2.18
2019-02-25T04:33:15.999Z,2.10
2019-02-25T04:34:15.974Z,1.93
2019-02-25T04:35:15.949Z,2.02
2019-02-25T04:36:15.925Z,1.81
2019-02-25T04:37:15.898Z,1.83
2019-02-25T04:38:15.872Z,1.86
2019-02-25T04:39:15.848Z,1.93
2019-02-25T04:40:15.827Z,1.99
2019-02-25T04:41:15.799Z,2.05
2019-02-25T04:42:15.779Z,1.88
2019-02-25T04:43:15.753Z,2.03
2019-02-25T04:44:15.722Z,2.00
2019-02-25T04:45:15.693Z,1.98
2019-02-25T04:46:15.667Z,2.00
2019-02-25T04:47:15.649Z,1.93
2019-02-25T04:48:15.618Z,2.06
2019-02-25T04:49:15.592Z,2.07
2019-02-25T04:50:15.569Z,2.12
2019-02-25T04:51:15.540Z,2.16
2019-02-25T04:52:15.516Z,2.24
2019-02-25T04:53:15.495Z,2.27
2019-02-25T04:54:15.475Z,2.24
2019-02-25T04:55:15.443Z,2.17
2019-02-25T04:56:15.414Z,2.07
2019-02-25T04:57:15.395Z,2.14
2019-02-25T04:58:15.376Z,2.12
2019-02-25T04:59:15.340Z,2.14
2019-02-25T05:00:15.319Z,2.18
2019-02-25T05:01:15.289Z,2.18
2019-02-25T05:02:15.262Z,2.20
2019-02-25T05:03:15.238Z,2.28
2019-02-25T05:04:15.213Z,2.35
2019-02-25T05:05:15.185Z,2.34
2019-02-25T05:06:15.166Z,2.27
2019-02-25T05:07:15.133Z,2.34
2019-02-25T05:08:15.110Z,2.35
2019-02-25T05:09:15.097Z,2.35
2019-02-25T05:10:15.064Z,2.27
2019-02-25T05:11:15.035Z,2.25
2019-02-25T05:12:15.014Z,2.23
2019-02-25T05:13:14.982Z,2.21
2019-02-25T05:14:14.956Z,2.20
2019-02-25T05:15:14.934Z,2.18
2019-02-25T05:16:14.906Z,2.23
2019-02-25T05:17:14.880Z,2.23
2019-02-25T05:18:14.867Z,2.23
2019-02-25T05:19:14.833Z,2.24
2019-02-25T05:20:14.807Z,2.31
2019-02-25T05:21:14.779Z,2.21
2019-02-25T05:22:14.753Z,2.27
2019-02-25T05:23:14.726Z,2.21
2019-02-25T05:24:14.702Z,2.23
2019-02-25T05:25:14.679Z,2.36
2019-02-25T05:26:14.650Z,2.28
2019-02-25T05:27:14.634Z,2.36
2019-02-25T05:28:14.616Z,2.39
2019-02-25T05:29:14.573Z,2.49
2019-02-25T05:30:14.570Z,2.48
2019-02-25T05:31:14.525Z,2.46
2019-02-25T05:32:14.496Z,2.43
2019-02-25T05:33:14.473Z,2.48
2019-02-25T05:34:14.449Z,2.46
2019-02-25T05:35:14.436Z,2.53
2019-02-25T05:36:14.400Z,2.49
2019-02-25T05:37:14.379Z,2.46
2019-02-25T05:38:14.347Z,2.52
2019-02-25T05:39:14.319Z,2.49
2019-02-25T05:40:14.299Z,2.45
2019-02-25T05:41:14.270Z,2.43
2019-02-25T05:42:14.247Z,2.49
2019-02-25T05:43:14.220Z,2.49
2019-02-25T05:44:14.194Z,2.43
2019-02-25T05:45:14.175Z,2.52
2019-02-25T05:46:14.149Z,2.56
2019-02-25T05:47:14.121Z,2.43
2019-02-25T05:48:14.093Z,2.46
2019-02-25T05:49:14.066Z,2.48
2019-02-25T05:50:14.087Z,2.54
2019-02-25T05:51:14.024Z,2.48
2019-02-25T05:52:13.994Z,2.49
2019-02-25T05:53:13.963Z,2.43
2019-02-25T05:54:13.944Z,2.34
2019-02-25T05:55:13.974Z,2.42
2019-02-25T05:56:13.887Z,2.45
2019-02-25T05:57:13.872Z,2.31
2019-02-25T05:58:13.844Z,2.34
2019-02-25T05:59:13.815Z,2.24
2019-02-25T06:00:13.789Z,2.18
2019-02-25T06:01:13.759Z,2.18
2019-02-25T06:02:13.736Z,2.14
2019-02-25T06:03:13.707Z,2.00
2019-02-25T06:04:13.682Z,2.09
2019-02-25T06:05:13.658Z,1.95
2019-02-25T06:06:13.631Z,1.99
2019-02-25T06:07:13.606Z,1.83
2019-02-25T06:08:13.583Z,1.81
2019-02-25T06:09:13.556Z,1.77
2019-02-25T06:10:13.529Z,1.83
2019-02-25T06:11:13.513Z,1.86
2019-02-25T06:12:13.479Z,1.77
2019-02-25T06:13:13.454Z,1.84
2019-02-25T06:14:13.429Z,1.87
2019-02-25T06:15:13.405Z,2.02
2019-02-25T06:16:13.379Z,1.91
2019-02-25T06:17:13.351Z,1.93
2019-02-25T06:18:13.325Z,1.98
2019-02-25T06:19:13.301Z,1.91
2019-02-25T06:20:13.305Z,1.93
2019-02-25T06:21:13.254Z,1.98
2019-02-25T06:22:13.223Z,1.95
2019-02-25T06:23:13.202Z,1.84
2019-02-25T06:24:13.173Z,1.86
2019-02-25T06:25:13.184Z,1.81
2019-02-25T06:26:13.129Z,1.72
2019-02-25T06:27:13.097Z,1.65
2019-02-25T06:28:13.070Z,1.68
2019-02-25T06:29:13.044Z,1.60
2019-02-25T06:30:13.024Z,1.58
2019-02-25T06:31:12.997Z,1.62
2019-02-25T06:32:12.966Z,1.59
2019-02-25T06:33:12.940Z,1.66
2019-02-25T06:34:12.914Z,1.66
2019-02-25T06:35:12.897Z,1.63
2019-02-25T06:36:12.872Z,1.69
2019-02-25T06:37:12.839Z,1.72
2019-02-25T06:38:12.816Z,1.86
2019-02-25T06:39:12.800Z,1.84
2019-02-25T06:40:15.250Z,1.90
2019-02-25T06:41:12.745Z,1.95
2019-02-25T06:42:12.710Z,1.99
2019-02-25T06:43:12.686Z,1.87
2019-02-25T06:44:12.659Z,2.02
2019-02-25T06:45:12.636Z,1.83
2019-02-25T06:46:12.607Z,1.88
2019-02-25T06:47:12.583Z,1.77
2019-02-25T06:48:12.559Z,1.66
2019-02-25T06:49:12.531Z,1.68
2019-02-25T06:50:12.503Z,1.79
2019-02-25T06:51:12.480Z,1.76
2019-02-25T06:52:12.461Z,1.70
2019-02-25T06:53:12.427Z,1.72
2019-02-25T06:54:12.402Z,1.68
2019-02-25T06:55:12.378Z,1.66
2019-02-25T06:56:12.350Z,1.69
2019-02-25T06:57:12.324Z,1.63
2019-02-25T06:58:12.301Z,1.45
2019-02-25T06:59:12.274Z,1.47
2019-02-25T07:00:12.250Z,1.45
2019-02-25T07:01:12.220Z,1.45
2019-02-25T07:02:12.196Z,1.47
2019-02-25T07:03:12.175Z,1.47
2019-02-25T07:04:12.145Z,1.60
2019-02-25T07:05:12.118Z,1.68
2019-02-25T07:06:12.093Z,1.65
2019-02-25T07:07:12.067Z,1.77
2019-02-25T07:08:12.042Z,1.73
2019-02-25T07:09:12.016Z,1.81
2019-02-25T07:10:11.995Z,1.88
2019-02-25T07:11:11.966Z,1.95
2019-02-25T07:12:11.943Z,2.00
2019-02-25T07:13:11.911Z,1.98
2019-02-25T07:14:11.891Z,1.93
2019-02-25T07:15:11.861Z,1.98
2019-02-25T07:16:11.838Z,1.90
2019-02-25T07:17:11.811Z,1.93
2019-02-25T07:18:11.786Z,1.99
2019-02-25T07:19:11.760Z,1.81
2019-02-25T07:20:11.732Z,1.76
2019-02-25T07:21:11.716Z,1.73
2019-02-25T07:22:11.699Z,1.63
2019-02-25T07:23:11.672Z,1.70
2019-02-25T07:24:11.632Z,1.77
2019-02-25T07:25:11.610Z,1.79
2019-02-25T07:26:11.584Z,1.88
2019-02-25T07:27:11.563Z,1.95
2019-02-25T07:28:11.530Z,1.90
2019-02-25T07:29:11.506Z,1.91
2019-02-25T07:30:11.479Z,1.98
2019-02-25T07:31:11.455Z,2.00
2019-02-25T07:32:11.429Z,2.23
2019-02-25T07:33:11.404Z,2.24
2019-02-25T07:34:11.388Z,2.27
2019-02-25T07:35:11.350Z,2.30
2019-02-25T07:36:11.346Z,2.31
2019-02-25T07:37:11.299Z,2.24
2019-02-25T07:38:11.297Z,2.25
2019-02-25T07:39:11.247Z,2.36
2019-02-25T07:40:11.222Z,2.24
2019-02-25T07:41:11.194Z,2.34
2019-02-25T07:42:11.174Z,2.21
2019-02-25T07:43:11.142Z,2.28
2019-02-25T07:44:11.125Z,2.27
2019-02-25T07:45:11.103Z,2.39
2019-02-25T07:46:11.068Z,2.39
2019-02-25T07:47:11.043Z,2.49
2019-02-25T07:48:11.017Z,2.52
2019-02-25T07:49:10.995Z,2.60
2019-02-25T07:50:10.969Z,2.61
2019-02-25T07:51:10.942Z,2.61
2019-02-25T07:52:10.913Z,2.74
2019-02-25T07:53:10.894Z,2.64
2019-02-25T07:54:10.869Z,2.78
2019-02-25T07:55:10.839Z,2.87
2019-02-25T07:56:10.814Z,2.79
2019-02-25T07:57:10.796Z,2.87
2019-02-25T07:58:10.763Z,2.92
2019-02-25T07:59:10.738Z,2.96
2019-02-25T08:00:10.712Z,3.11
2019-02-25T08:01:10.686Z,3.24
2019-02-25T08:02:10.658Z,3.31
2019-02-25T08:03:10.636Z,3.35
2019-02-25T08:04:10.610Z,3.45
2019-02-25T08:05:10.585Z,3.51
2019-02-25T08:06:12.007Z,3.54
2019-02-25T08:07:10.532Z,3.62
2019-02-25T08:08:10.509Z,3.73
2019-02-25T08:09:10.485Z,3.72
2019-02-25T08:10:10.457Z,3.75
2019-02-25T08:11:10.436Z,3.75
2019-02-25T08:12:10.408Z,3.96
2019-02-25T08:13:10.381Z,4.00
2019-02-25T08:14:10.358Z,4.06
2019-02-25T08:15:10.331Z,4.09
2019-02-25T08:16:10.306Z,4.11
2019-02-25T08:17:10.281Z,4.09
2019-02-25T08:18:10.259Z,4.05
2019-02-25T08:19:10.235Z,4.24
2019-02-25T08:20:10.208Z,4.29
2019-02-25T08:21:10.181Z,4.27
2019-02-25T08:22:10.155Z,4.24
2019-02-25T08:23:10.139Z,4.29
2019-02-25T08:24:10.111Z,4.33
2019-02-25T08:25:10.079Z,4.45
2019-02-25T08:26:10.056Z,4.45
2019-02-25T08:27:10.033Z,4.41
2019-02-25T08:28:10.011Z,4.42
2019-02-25T08:29:09.988Z,4.51
2019-02-25T08:30:09.957Z,4.66
2019-02-25T08:31:09.936Z,4.54
2019-02-25T08:32:09.915Z,4.69
2019-02-25T08:33:09.879Z,4.66
2019-02-25T08:34:18.382Z,4.77
2019-02-25T08:35:09.833Z,4.84
2019-02-25T08:36:09.810Z,4.86
2019-02-25T08:37:09.780Z,4.78
2019-02-25T08:38:09.756Z,4.94
2019-02-25T08:39:09.730Z,4.97
2019-02-25T08:40:11.620Z,4.97
2019-02-25T08:41:09.680Z,5.06
2019-02-25T08:42:09.671Z,5.12
2019-02-25T08:43:09.631Z,5.22
2019-02-25T08:44:09.613Z,5.22
2019-02-25T08:45:09.583Z,5.22
2019-02-25T08:46:09.557Z,5.31
2019-02-25T08:47:09.544Z,5.30
2019-02-25T08:48:09.511Z,5.51
2019-02-25T08:49:09.492Z,5.53
2019-02-25T08:50:09.459Z,5.58
2019-02-25T08:51:09.433Z,5.61
2019-02-25T08:52:09.411Z,5.58
2019-02-25T08:53:09.393Z,5.65
2019-02-25T08:54:09.361Z,5.68
2019-02-25T08:55:09.337Z,5.76
2019-02-25T08:56:09.322Z,5.82
2019-02-25T08:57:09.293Z,5.76
2019-02-25T08:58:09.400Z,5.90
2019-02-25T08:59:09.249Z,5.91
2019-02-25T09:00:09.217Z,5.97
2019-02-25T09:01:09.244Z,5.96
2019-02-25T09:02:09.175Z,6.01
2019-02-25T09:03:09.148Z,6.01
2019-02-25T09:04:09.127Z,6.15
2019-02-25T09:05:09.103Z,6.04
2019-02-25T09:06:09.074Z,6.14
2019-02-25T09:07:09.050Z,6.19
2019-02-25T09:08:09.026Z,6.14
2019-02-25T09:09:08.996Z,6.22
2019-02-25T09:10:08.974Z,6.36
2019-02-25T09:11:14.180Z,6.28
2019-02-25T09:12:08.929Z,6.36
2019-02-25T09:13:08.899Z,6.44
2019-02-25T09:14:08.874Z,6.51
2019-02-25T09:15:08.850Z,6.44
2019-02-25T09:16:08.825Z,6.55
2019-02-25T09:17:08.799Z,6.71
2019-02-25T09:18:08.778Z,6.67
2019-02-25T09:19:08.754Z,6.79
2019-02-25T09:20:08.740Z,6.88
2019-02-25T09:21:08.705Z,6.95
2019-02-25T09:22:08.692Z,7.09
2019-02-25T09:23:08.657Z,7.12
2019-02-25T09:24:08.642Z,7.16
2019-02-25T09:25:08.610Z,7.17
2019-02-25T09:26:08.585Z,7.27
2019-02-25T09:27:08.566Z,7.32
2019-02-25T09:28:08.537Z,7.30
2019-02-25T09:29:08.521Z,7.35
2019-02-25T09:30:08.488Z,7.40
2019-02-25T09:31:08.465Z,7.37
2019-02-25T09:32:08.443Z,7.42
2019-02-25T09:33:08.419Z,7.46
2019-02-25T09:34:08.391Z,7.50
2019-02-25T09:35:08.368Z,7.67
2019-02-25T09:36:08.345Z,7.85
2019-02-25T09:37:08.319Z,7.92
2019-02-25T09:38:08.298Z,8.02
2019-02-25T09:39:08.281Z,8.08
2019-02-25T09:40:08.250Z,8.10
2019-02-25T09:41:08.224Z,8.38
2019-02-25T09:42:08.209Z,8.53
2019-02-25T09:43:08.178Z,8.59
2019-02-25T09:44:08.154Z,8.59
2019-02-25T09:45:08.130Z,8.63
2019-02-25T09:46:08.114Z,8.59
2019-02-25T09:47:08.085Z,8.56
2019-02-25T09:48:08.069Z,8.58
2019-02-25T09:49:08.046Z,8.41
2019-02-25T09:50:08.028Z,8.41
2019-02-25T09:51:07.997Z,8.45
2019-02-25T09:52:07.964Z,8.40
2019-02-25T09:53:07.944Z,8.47
2019-02-25T09:54:07.916Z,8.47
2019-02-25T09:55:07.900Z,8.43
2019-02-25T09:56:07.875Z,8.55
2019-02-25T09:57:07.857Z,8.65
2019-02-25T09:58:10.815Z,8.68
2019-02-25T09:59:07.799Z,8.81
2019-02-25T10:00:07.778Z,8.86
2019-02-25T10:01:07.758Z,9.02
2019-02-25T10:02:07.728Z,9.11
2019-02-25T10:03:07.720Z,9.18
2019-02-25T10:04:08.812Z,9.13
2019-02-25T10:05:07.670Z,9.20
2019-02-25T10:06:07.637Z,9.43
2019-02-25T10:07:07.613Z,9.47
2019-02-25T10:08:07.589Z,9.51
2019-02-25T10:09:07.575Z,9.43
2019-02-25T10:10:07.546Z,9.51
2019-02-25T10:11:07.526Z,9.60
2019-02-25T10:12:07.497Z,9.54
2019-02-25T10:13:07.473Z,9.60
2019-02-25T10:14:07.450Z,9.56
2019-02-25T10:15:07.429Z,9.65
2019-02-25T10:16:07.404Z,9.74
2019-02-25T10:17:07.383Z,9.79
2019-02-25T10:18:07.364Z,9.93
2019-02-25T10:19:07.340Z,9.99
2019-02-25T10:20:07.319Z,9.96
2019-02-25T10:21:07.288Z,10.14
2019-02-25T10:22:07.268Z,10.09
2019-02-25T10:23:07.255Z,10.07
2019-02-25T10:24:07.224Z,10.17
2019-02-25T10:25:07.202Z,10.20
2019-02-25T10:26:07.174Z,10.26
2019-02-25T10:27:07.153Z,10.30
2019-02-25T10:28:07.130Z,10.14
2019-02-25T10:29:07.108Z,10.12
2019-02-25T10:30:07.085Z,10.09
2019-02-25T10:31:07.059Z,10.12
2019-02-25T10:32:07.057Z,10.14
2019-02-25T10:33:07.018Z,10.08
2019-02-25T10:34:07.667Z,10.18
2019-02-25T10:35:06.972Z,10.23
2019-02-25T10:36:06.947Z,10.30
2019-02-25T10:37:06.925Z,10.36
2019-02-25T10:38:06.904Z,10.40
2019-02-25T10:39:08.590Z,10.36
2019-02-25T10:40:06.904Z,10.53
2019-02-25T10:41:06.836Z,10.60
2019-02-25T10:42:06.815Z,10.63
2019-02-25T10:43:06.793Z,10.64
2019-02-25T10:44:08.517Z,10.63
2019-02-25T10:45:07.366Z,10.71
2019-02-25T10:46:07.111Z,10.79
2019-02-25T10:47:06.700Z,10.76
2019-02-25T10:48:06.679Z,11.00
2019-02-25T10:49:11.649Z,11.09
2019-02-25T10:50:07.460Z,11.35
2019-02-25T10:51:07.642Z,11.37
2019-02-25T10:52:08.644Z,11.44
2019-02-25T10:53:06.577Z,11.39
2019-02-25T10:54:06.550Z,11.43
2019-02-25T10:55:06.524Z,11.58
2019-02-25T10:56:06.499Z,11.61
2019-02-25T10:57:06.479Z,11.75
2019-02-25T10:58:06.462Z,11.76
2019-02-25T10:59:08.118Z,11.80
2019-02-25T11:00:07.388Z,11.85
2019-02-25T11:01:08.462Z,11.83
2019-02-25T11:02:06.368Z,11.95
2019-02-25T11:03:06.345Z,11.91
2019-02-25T11:04:06.333Z,11.83
2019-02-25T11:05:06.300Z,11.76
2019-02-25T11:06:06.287Z,11.80
2019-02-25T11:07:07.825Z,11.79
2019-02-25T11:08:07.480Z,11.70
2019-02-25T11:09:07.036Z,11.69
2019-02-25T11:10:06.192Z,11.70
2019-02-25T11:11:06.169Z,11.61
2019-02-25T11:12:06.164Z,11.61
2019-02-25T11:13:06.126Z,11.61
2019-02-25T11:14:07.203Z,11.60
2019-02-25T11:15:07.480Z,11.75
2019-02-25T11:16:06.063Z,11.73
2019-02-25T11:17:06.037Z,11.76
2019-02-25T11:18:06.022Z,11.79
2019-02-25T11:19:05.999Z,11.85
2019-02-25T11:20:05.980Z,11.95
2019-02-25T11:21:06.904Z,11.94
2019-02-25T11:22:07.807Z,12.07
2019-02-25T11:23:05.909Z,12.19
2019-02-25T11:24:05.889Z,12.13
2019-02-25T11:25:05.865Z,12.28
2019-02-25T11:26:05.850Z,12.29
2019-02-25T11:27:07.309Z,12.27
2019-02-25T11:28:07.619Z,12.52
2019-02-25T11:29:07.639Z,12.70
2019-02-25T11:30:05.766Z,12.71
2019-02-25T11:31:05.739Z,12.72
2019-02-25T11:32:05.717Z,12.72
2019-02-25T11:33:05.700Z,12.79
2019-02-25T11:34:07.863Z,12.72
2019-02-25T11:35:06.375Z,12.74
2019-02-25T11:36:05.642Z,12.82
2019-02-25T11:37:05.612Z,12.60
2019-02-25T11:38:05.594Z,12.72
2019-02-25T11:39:07.009Z,12.75
2019-02-25T11:40:05.547Z,12.87
2019-02-25T11:41:07.132Z,12.96
2019-02-25T11:42:07.425Z,13.10
2019-02-25T11:43:05.490Z,13.11
2019-02-25T11:44:05.464Z,13.03
2019-02-25T11:45:05.443Z,13.15
2019-02-25T11:46:05.424Z,13.22
2019-02-25T11:47:05.397Z,13.25
2019-02-25T11:48:05.387Z,13.25
2019-02-25T11:49:05.354Z,13.28
2019-02-25T11:50:05.334Z,13.30
2019-02-25T11:51:05.312Z,13.26
2019-02-25T11:52:05.299Z,13.26
2019-02-25T11:53:05.273Z,13.20
2019-02-25T11:54:05.258Z,13.20
2019-02-25T11:55:05.231Z,13.23
2019-02-25T11:56:05.209Z,13.17
2019-02-25T11:57:05.193Z,13.22
2019-02-25T11:58:05.167Z,13.30
2019-02-25T11:59:05.146Z,13.36
2019-02-25T12:00:05.128Z,13.26
2019-02-25T12:01:05.111Z,13.33
2019-02-25T12:02:05.085Z,13.36
2019-02-25T12:03:05.069Z,13.38
2019-02-25T12:04:05.043Z,13.44
2019-02-25T12:05:05.021Z,13.41
2019-02-25T12:06:05.000Z,13.39
2019-02-25T12:07:04.982Z,13.41
2019-02-25T12:08:04.961Z,13.39
2019-02-25T12:09:04.942Z,13.36
2019-02-25T12:10:04.916Z,13.36
2019-02-25T12:11:04.896Z,13.41
2019-02-25T12:12:04.878Z,13.57
2019-02-25T12:13:04.855Z,13.67
2019-02-25T12:14:04.833Z,13.71
2019-02-25T12:15:04.833Z,13.67
2019-02-25T12:16:04.793Z,13.55
2019-02-25T12:17:04.772Z,13.51
2019-02-25T12:18:04.751Z,13.46
2019-02-25T12:19:04.729Z,13.49
2019-02-25T12:20:04.707Z,13.60
2019-02-25T12:21:04.688Z,13.59
2019-02-25T12:22:04.668Z,13.54
2019-02-25T12:23:04.648Z,13.60
2019-02-25T12:24:04.626Z,13.54
2019-02-25T12:25:04.611Z,13.62
2019-02-25T12:26:04.603Z,13.54
2019-02-25T12:27:04.567Z,13.60
2019-02-25T12:28:04.544Z,13.59
2019-02-25T12:29:10.759Z,13.63
2019-02-25T12:30:04.507Z,13.70
2019-02-25T12:31:04.491Z,13.73
2019-02-25T12:32:04.465Z,13.84
2019-02-25T12:33:04.444Z,13.85
2019-02-25T12:34:04.434Z,13.92
2019-02-25T12:35:04.402Z,14.02
2019-02-25T12:36:04.384Z,14.03
2019-02-25T12:37:04.369Z,13.91
2019-02-25T12:38:04.338Z,13.99
2019-02-25T12:39:04.338Z,14.07
2019-02-25T12:40:04.302Z,14.12
2019-02-25T12:41:04.284Z,14.21
2019-02-25T12:42:04.267Z,14.24
2019-02-25T12:43:04.238Z,14.10
2019-02-25T12:44:04.228Z,14.04
2019-02-25T12:45:04.197Z,14.06
2019-02-25T12:46:04.181Z,14.10
2019-02-25T12:47:04.159Z,14.12
2019-02-25T12:48:04.144Z,14.09
2019-02-25T12:49:04.114Z,14.07
2019-02-25T12:50:04.093Z,14.22
2019-02-25T12:51:04.074Z,14.22
2019-02-25T12:52:04.057Z,14.33
2019-02-25T12:53:04.033Z,14.37
2019-02-25T12:54:04.014Z,14.37
2019-02-25T12:55:03.990Z,14.47
2019-02-25T12:56:03.974Z,14.43
2019-02-25T12:57:03.951Z,14.36
2019-02-25T12:58:03.935Z,14.35
2019-02-25T12:59:05.266Z,14.35
2019-02-25T13:00:03.891Z,14.42
2019-02-25T13:01:03.884Z,14.36
2019-02-25T13:02:03.851Z,14.35
2019-02-25T13:03:03.828Z,14.42
2019-02-25T13:04:03.822Z,14.43
2019-02-25T13:05:03.793Z,14.51
2019-02-25T13:06:03.769Z,14.52
2019-02-25T13:07:03.756Z,14.70
2019-02-25T13:08:03.738Z,14.58
2019-02-25T13:09:03.719Z,14.58
2019-02-25T13:10:03.692Z,14.68
2019-02-25T13:11:03.669Z,14.75
2019-02-25T13:12:03.647Z,14.65